createdAt,value
2022-10-11T00:00:10.111Z,470.90
2022-10-11T00:02:36.668Z,485.20
2022-10-11T00:05:03.676Z,477.77
2022-10-11T00:07:30.418Z,482.88
2022-10-11T00:09:57.036Z,493.83
2022-10-11T00:12:23.572Z,481.17
2022-10-11T00:14:50.225Z,480.75
2022-10-11T00:17:16.796Z,468.85
2022-10-11T00:19:43.347Z,465.90
2022-10-11T00:22:10.053Z,484.10
2022-10-11T00:24:36.650Z,472.88
2022-10-11T00:33:08.873Z,476.65
2022-10-11T00:35:35.966Z,454.08
2022-10-11T00:38:02.967Z,470.17
2022-10-11T00:40:29.962Z,481.58
2022-10-11T00:42:56.858Z,479.60
2022-10-11T00:45:26.674Z,464.10
2022-10-11T00:48:00.674Z,460.70
2022-10-11T00:50:31.544Z,453.48
2022-10-11T00:53:03.482Z,475.42
2022-10-11T00:55:36.731Z,461.43
2022-10-11T00:58:03.613Z,468.77
2022-10-11T01:00:30.232Z,469.67
2022-10-11T01:02:57.083Z,483.00
2022-10-11T01:05:29.617Z,481.58
2022-10-11T01:07:59.098Z,468.98
2022-10-11T01:10:26.710Z,473.80
2022-10-11T01:13:25.508Z,473.15
2022-10-11T01:16:07.971Z,477.48
2022-10-11T01:18:44.273Z,493.08
2022-10-11T01:21:10.914Z,487.58
2022-10-11T01:23:46.397Z,476.67
2022-10-11T01:26:41.462Z,498.55
2022-10-11T01:29:26.427Z,481.67
2022-10-11T01:32:03.816Z,473.83
2022-10-11T01:34:52.986Z,475.77
2022-10-11T01:37:28.319Z,478.73
2022-10-11T01:40:02.522Z,472.98
2022-10-11T01:42:30.227Z,464.75
2022-10-11T01:44:58.821Z,477.67
2022-10-11T01:47:26.193Z,458.42
2022-10-11T01:49:57.150Z,480.08
2022-10-11T01:52:26.605Z,480.83
2022-10-11T01:55:09.891Z,474.50
2022-10-11T01:57:42.882Z,470.40
2022-10-11T02:00:22.795Z,485.23
2022-10-11T02:03:19.491Z,454.23
2022-10-11T02:06:01.135Z,476.30
2022-10-11T02:08:53.110Z,458.95
2022-10-11T02:11:27.635Z,467.10
2022-10-11T02:14:03.483Z,461.25
2022-10-11T02:17:04.020Z,461.65
2022-10-11T02:19:36.754Z,454.65
2022-10-11T02:22:08.411Z,458.98
2022-10-11T02:24:38.151Z,456.38
2022-10-11T02:27:06.112Z,455.35
2022-10-11T02:29:37.819Z,457.73
2022-10-11T02:32:05.967Z,446.83
2022-10-11T02:34:40.102Z,453.67
2022-10-11T02:37:21.561Z,464.02
2022-10-11T02:40:02.520Z,458.15
2022-10-11T02:42:37.117Z,451.80
2022-10-11T02:45:12.099Z,463.30
2022-10-11T02:47:40.813Z,468.77
2022-10-11T02:50:07.833Z,474.80
2022-10-11T02:52:34.391Z,459.42
2022-10-11T02:55:00.939Z,457.10
2022-10-11T02:57:27.471Z,476.70
2022-10-11T02:59:54.063Z,481.75
2022-10-11T03:02:20.735Z,468.65
2022-10-11T03:04:47.540Z,495.85
2022-10-11T03:07:14.745Z,498.95
2022-10-11T03:09:41.376Z,484.33
2022-10-11T03:12:08.263Z,487.85
2022-10-11T03:14:34.799Z,486.30
2022-10-11T03:17:23.851Z,476.63
2022-10-11T03:19:48.325Z,463.30
2022-10-11T03:22:14.897Z,479.23
2022-10-11T03:24:41.488Z,468.87
2022-10-11T03:27:08.049Z,462.38
2022-10-11T03:29:34.599Z,449.38
2022-10-11T03:32:01.239Z,469.73
2022-10-11T03:34:27.877Z,476.33
2022-10-11T03:36:54.510Z,473.30
2022-10-11T03:39:22.705Z,475.20
2022-10-11T03:41:49.365Z,480.48
2022-10-11T03:44:16.005Z,474.13
2022-10-11T03:46:42.602Z,470.27
2022-10-11T03:49:09.225Z,449.98
2022-10-11T03:51:36.418Z,471.70
2022-10-11T03:54:03.100Z,465.95
2022-10-11T03:56:29.636Z,471.00
2022-10-11T03:58:56.278Z,468.83
2022-10-11T04:01:22.893Z,465.65
2022-10-11T04:03:49.539Z,442.02
2022-10-11T04:06:16.189Z,464.48
2022-10-11T04:08:42.793Z,437.75
2022-10-11T04:11:09.420Z,451.50
2022-10-11T04:13:36.434Z,443.95
2022-10-11T04:16:03.461Z,448.52
2022-10-11T04:18:30.365Z,453.05
2022-10-11T04:20:56.961Z,458.33
2022-10-11T04:23:23.667Z,463.38
2022-10-11T04:25:50.333Z,455.58
2022-10-11T04:28:16.919Z,456.02
2022-10-11T04:30:43.825Z,436.95
2022-10-11T04:33:11.517Z,462.05
2022-10-11T04:35:38.385Z,466.85
2022-10-11T04:38:05.000Z,452.08
2022-10-11T04:40:32.550Z,443.38
2022-10-11T04:42:59.111Z,458.38
2022-10-11T04:45:26.297Z,440.65
2022-10-11T04:47:52.891Z,430.27
2022-10-11T04:50:19.557Z,442.83
2022-10-11T04:52:46.813Z,435.00
2022-10-11T04:55:14.178Z,420.23
2022-10-11T04:57:40.768Z,427.48
2022-10-11T05:00:07.986Z,431.42
2022-10-11T05:02:34.627Z,428.08
2022-10-11T05:05:01.262Z,427.73
2022-10-11T05:07:27.844Z,417.00
2022-10-11T05:09:54.602Z,432.65
2022-10-11T05:12:21.158Z,422.13
2022-10-11T05:14:47.761Z,428.50
2022-10-11T05:17:14.381Z,417.75
2022-10-11T05:19:41.043Z,432.92
2022-10-11T05:22:07.638Z,403.73
2022-10-11T05:24:34.302Z,438.80
2022-10-11T05:27:03.323Z,430.02
2022-10-11T05:29:30.259Z,433.40
2022-10-11T05:31:56.905Z,428.27
2022-10-11T05:34:23.406Z,439.80
2022-10-11T05:36:50.065Z,438.15
2022-10-11T05:39:16.601Z,438.95
2022-10-11T05:41:43.280Z,451.45
2022-10-11T05:44:09.870Z,432.83
2022-10-11T05:46:36.524Z,437.67
2022-10-11T05:49:03.219Z,446.65
2022-10-11T05:51:29.848Z,416.27
2022-10-11T05:53:56.454Z,453.17
2022-10-11T05:56:24.994Z,439.75
2022-10-11T05:58:52.281Z,439.90
2022-10-11T06:01:23.138Z,452.35
2022-10-11T06:03:50.717Z,447.02
2022-10-11T06:06:17.964Z,418.38
2022-10-11T06:08:45.453Z,433.20
2022-10-11T06:11:13.319Z,437.25
2022-10-11T06:13:40.855Z,403.13
2022-10-11T06:16:08.234Z,415.75
2022-10-11T06:18:35.001Z,419.93
2022-10-11T06:21:01.826Z,409.63
2022-10-11T06:23:28.546Z,423.65
2022-10-11T06:26:11.437Z,408.13
2022-10-11T06:28:58.949Z,425.87
2022-10-11T06:31:25.806Z,412.60
2022-10-11T06:33:52.444Z,417.10
2022-10-11T06:36:19.173Z,414.98
2022-10-11T06:38:45.850Z,406.58
2022-10-11T06:41:21.095Z,400.92
2022-10-11T06:43:49.894Z,398.55
2022-10-11T06:46:17.863Z,413.15
2022-10-11T06:48:45.897Z,387.80
2022-10-11T06:51:14.456Z,406.02
2022-10-11T06:53:41.258Z,407.20
2022-10-11T06:56:11.415Z,404.08
2022-10-11T06:58:39.303Z,400.42
2022-10-11T07:01:10.409Z,389.00
2022-10-11T07:03:37.538Z,396.27
2022-10-11T07:06:10.617Z,374.30
2022-10-11T07:08:38.252Z,385.00
2022-10-11T07:11:17.891Z,356.40
2022-10-11T07:13:49.864Z,368.45
2022-10-11T07:16:16.925Z,366.92
2022-10-11T07:18:43.570Z,377.63
2022-10-11T07:21:15.674Z,377.00
2022-10-11T07:23:42.700Z,375.17
2022-10-11T07:26:10.979Z,374.17
2022-10-11T07:28:38.549Z,391.70
2022-10-11T07:31:26.930Z,351.40
2022-10-11T07:33:53.809Z,356.23
2022-10-11T07:36:20.650Z,337.13
2022-10-11T07:38:50.345Z,369.65
2022-10-11T07:41:17.452Z,347.63
2022-10-11T07:43:46.910Z,352.02
2022-10-11T07:46:14.217Z,359.97
2022-10-11T07:48:40.925Z,334.95
2022-10-11T07:51:11.623Z,331.73
2022-10-11T07:53:42.959Z,330.58
2022-10-11T07:56:14.895Z,330.58
2022-10-11T07:58:42.588Z,319.73
2022-10-11T08:01:10.619Z,304.38
2022-10-11T08:03:38.082Z,303.90
2022-10-11T08:06:07.698Z,272.23
2022-10-11T08:08:35.556Z,307.70
2022-10-11T08:11:02.266Z,283.70
2022-10-11T08:13:29.054Z,293.05
2022-10-11T08:15:55.633Z,284.48
2022-10-11T08:18:22.403Z,303.03
2022-10-11T08:20:48.963Z,289.43
2022-10-11T08:23:16.856Z,315.25
2022-10-11T08:25:47.508Z,302.30
2022-10-11T08:28:18.533Z,285.35
2022-10-11T08:30:54.267Z,287.88
2022-10-11T08:33:23.015Z,288.80
2022-10-11T08:35:50.475Z,287.35
2022-10-11T08:38:18.002Z,288.13
2022-10-11T08:40:49.596Z,324.67
2022-10-11T08:43:28.366Z,297.52
2022-10-11T08:45:58.554Z,291.85
2022-10-11T08:48:41.989Z,283.07
2022-10-11T08:51:24.930Z,290.75
2022-10-11T08:54:12.567Z,283.42
2022-10-11T08:56:41.746Z,271.27
2022-10-11T08:59:11.229Z,258.55
2022-10-11T09:01:44.638Z,285.95
2022-10-11T09:04:14.745Z,300.20
2022-10-11T09:06:55.631Z,276.00
2022-10-11T09:09:48.850Z,257.75
2022-10-11T09:12:32.303Z,254.10
2022-10-11T09:15:03.169Z,258.45
2022-10-11T09:17:42.877Z,257.48
2022-10-11T09:20:18.169Z,275.40
2022-10-11T09:23:11.598Z,263.17
2022-10-11T09:25:49.392Z,236.57
2022-10-11T09:28:35.147Z,256.73
2022-10-11T09:31:01.954Z,241.82
2022-10-11T09:33:31.369Z,242.52
2022-10-11T09:35:58.608Z,226.30
2022-10-11T09:38:37.345Z,217.35
2022-10-11T09:41:15.029Z,228.82
2022-10-11T09:43:46.046Z,215.45
2022-10-11T09:46:30.865Z,211.98
2022-10-11T09:49:00.714Z,219.50
2022-10-11T09:51:28.120Z,210.38
2022-10-11T09:54:04.309Z,209.30
2022-10-11T09:56:33.673Z,205.10
2022-10-11T09:59:21.971Z,182.30
2022-10-11T10:01:49.044Z,187.55
2022-10-11T10:04:18.954Z,172.02
2022-10-11T10:06:45.678Z,170.23
2022-10-11T10:09:24.586Z,175.25
2022-10-11T10:11:51.685Z,159.18
2022-10-11T10:14:30.435Z,159.18
2022-10-11T10:17:06.554Z,171.30
2022-10-11T10:19:44.710Z,170.73
2022-10-11T10:22:21.210Z,176.73
2022-10-11T10:24:50.566Z,180.00
2022-10-11T10:27:21.605Z,168.38
2022-10-11T10:30:09.483Z,160.00
2022-10-11T10:32:57.872Z,165.50
2022-10-11T10:35:27.508Z,176.05
2022-10-11T10:38:01.011Z,183.48
2022-10-11T10:40:37.642Z,173.50
2022-10-11T10:43:04.354Z,154.25
2022-10-11T10:46:28.905Z,142.98
2022-10-11T10:52:03.159Z,158.27
2022-10-11T10:54:35.478Z,154.45
2022-10-11T10:57:11.313Z,130.40
2022-10-11T10:59:53.154Z,115.00
2022-10-11T11:02:40.645Z,120.90
2022-10-11T11:05:40.811Z,64.88
2022-10-11T11:08:16.593Z,48.65
2022-10-11T11:10:55.790Z,48.17
2022-10-11T11:13:41.404Z,38.38
2022-10-11T11:16:13.198Z,24.83
2022-10-11T11:19:03.816Z,22.38
2022-10-11T11:21:59.344Z,19.10
2022-10-11T11:24:28.553Z,17.42
2022-10-11T11:27:23.811Z,21.88
2022-10-11T11:30:03.456Z,15.05
2022-10-11T11:32:45.548Z,16.05
2022-10-11T11:35:43.939Z,13.95
2022-10-11T11:38:20.890Z,13.90
2022-10-11T11:40:58.488Z,11.60
2022-10-11T11:43:39.445Z,10.27
2022-10-11T11:46:16.001Z,11.55
2022-10-11T11:48:43.973Z,13.23
2022-10-11T11:51:26.490Z,14.60
2022-10-11T11:53:59.096Z,12.60
2022-10-11T11:56:44.542Z,14.63
2022-10-11T11:59:14.049Z,12.73
2022-10-11T12:01:48.025Z,14.63
2022-10-11T12:04:31.188Z,11.07
2022-10-11T12:07:18.567Z,11.95
2022-10-11T12:09:52.654Z,9.88
2022-10-11T12:12:37.377Z,14.73
2022-10-11T12:15:10.204Z,13.45
2022-10-11T12:17:54.779Z,12.75
2022-10-11T12:20:21.325Z,10.80
2022-10-11T12:22:53.860Z,16.10
2022-10-11T12:25:23.872Z,10.27
2022-10-11T12:27:56.589Z,13.05
2022-10-11T12:30:48.112Z,12.45
2022-10-11T12:33:22.764Z,10.98
2022-10-11T12:35:55.546Z,15.93
2022-10-11T12:38:39.987Z,13.90
2022-10-11T12:41:09.477Z,15.23
2022-10-11T12:44:15.019Z,12.88
2022-10-11T12:46:57.847Z,12.05
2022-10-11T12:49:36.850Z,13.45
2022-10-11T12:52:22.389Z,9.13
2022-10-11T12:55:01.088Z,9.77
2022-10-11T12:57:56.081Z,11.75
2022-10-11T13:00:30.833Z,10.80
2022-10-11T13:03:33.308Z,9.80
2022-10-11T13:06:09.995Z,9.18
2022-10-11T13:08:40.756Z,10.70
2022-10-11T13:11:17.490Z,15.32
2022-10-11T13:13:49.118Z,11.88
2022-10-11T13:16:21.425Z,12.50
2022-10-11T13:18:53.672Z,11.48
2022-10-11T13:21:27.175Z,9.77
2022-10-11T13:24:03.770Z,15.02
2022-10-11T13:26:31.717Z,13.63
2022-10-11T13:29:00.192Z,13.90
2022-10-11T13:31:27.797Z,14.40
2022-10-11T13:33:56.870Z,14.03
2022-10-11T13:36:26.924Z,11.52
2022-10-11T13:38:59.187Z,17.65
2022-10-11T13:41:28.238Z,13.48
2022-10-11T13:43:56.770Z,16.93
2022-10-11T13:46:28.417Z,13.77
2022-10-11T13:49:06.595Z,11.65
2022-10-11T13:51:35.495Z,11.68
2022-10-11T13:54:11.771Z,18.30
2022-10-11T13:56:49.529Z,15.02
2022-10-11T13:59:22.926Z,17.10
2022-10-11T14:01:54.214Z,15.30
2022-10-11T14:04:22.031Z,16.00
2022-10-11T14:07:02.412Z,9.43
2022-10-11T14:09:31.329Z,11.63
2022-10-11T14:12:29.120Z,12.75
2022-10-11T14:14:55.679Z,14.82
2022-10-11T14:17:32.779Z,8.73
2022-10-11T14:20:11.875Z,13.05
2022-10-11T14:22:38.947Z,14.63
2022-10-11T14:25:05.848Z,14.75
2022-10-11T14:27:32.877Z,16.35
2022-10-11T14:30:24.658Z,16.70
2022-10-11T14:32:49.498Z,20.35
2022-10-11T14:35:18.361Z,18.75
2022-10-11T14:37:45.927Z,23.38
2022-10-11T14:40:16.642Z,19.02
2022-10-11T14:42:43.942Z,30.88
2022-10-11T14:45:11.122Z,25.00
2022-10-11T14:47:42.758Z,26.47
2022-10-11T14:50:37.650Z,19.00
2022-10-11T14:53:05.882Z,23.00
2022-10-11T14:55:32.571Z,21.38
2022-10-11T14:57:59.148Z,15.95
2022-10-11T15:00:27.647Z,16.70
2022-10-11T15:02:55.315Z,19.33
2022-10-11T15:05:24.105Z,15.00
2022-10-11T15:07:50.862Z,16.60
2022-10-11T15:10:30.284Z,18.33
2022-10-11T15:12:58.051Z,19.13
2022-10-11T15:15:30.347Z,14.55
2022-10-11T15:17:58.930Z,21.17
2022-10-11T15:20:35.159Z,20.52
2022-10-11T15:23:01.842Z,21.15
2022-10-11T15:25:29.256Z,19.08
2022-10-11T15:27:56.450Z,22.73
2022-10-11T15:30:41.887Z,25.98
2022-10-11T15:33:08.546Z,19.25
2022-10-11T15:35:35.122Z,16.85
2022-10-11T15:38:01.707Z,23.50
2022-10-11T15:40:35.866Z,17.40
2022-10-11T15:43:03.087Z,19.85
2022-10-11T15:45:29.723Z,20.10
2022-10-11T15:47:56.926Z,20.30
2022-10-11T15:50:43.735Z,15.77
2022-10-11T15:53:26.328Z,16.90
2022-10-11T15:55:55.242Z,15.35
2022-10-11T15:58:27.462Z,16.00
2022-10-11T16:00:56.001Z,19.45
2022-10-11T16:03:25.469Z,16.15
2022-10-11T16:05:53.639Z,19.95
2022-10-11T16:08:20.821Z,19.95
2022-10-11T16:10:47.606Z,20.38
2022-10-11T16:13:14.476Z,21.92
2022-10-11T16:15:42.969Z,21.00
2022-10-11T16:18:12.694Z,19.25
2022-10-11T16:20:44.841Z,22.50
2022-10-11T16:23:12.841Z,20.93
2022-10-11T16:25:41.194Z,21.80
2022-10-11T16:28:09.252Z,18.42
2022-10-11T16:30:39.509Z,22.53
2022-10-11T16:33:06.157Z,17.00
2022-10-11T16:35:32.911Z,22.88
2022-10-11T16:38:00.918Z,23.08
2022-10-11T16:40:29.909Z,21.80
2022-10-11T16:42:56.533Z,23.63
2022-10-11T16:45:23.508Z,29.73
2022-10-11T16:47:50.204Z,51.45
2022-10-11T16:50:16.739Z,28.65
2022-10-11T16:52:43.281Z,48.27
2022-10-11T16:55:09.887Z,27.67
2022-10-11T16:57:37.776Z,43.10
2022-10-11T17:00:09.206Z,32.45
2022-10-11T17:02:36.680Z,21.67
2022-10-11T17:05:03.877Z,22.45
2022-10-11T17:07:31.299Z,33.17
2022-10-11T17:09:58.272Z,35.70
2022-10-11T17:12:24.986Z,32.67
2022-10-11T17:14:51.541Z,44.97
2022-10-11T17:17:20.613Z,57.75
2022-10-11T17:19:47.627Z,70.38
2022-10-11T17:22:17.668Z,104.67
2022-10-11T17:24:45.101Z,129.77
2022-10-11T17:27:11.674Z,167.55
2022-10-11T17:29:38.688Z,169.18
2022-10-11T17:32:05.697Z,188.60
2022-10-11T17:34:32.459Z,174.60
2022-10-11T17:36:59.098Z,169.55
2022-10-11T17:39:25.828Z,163.68
2022-10-11T17:41:52.773Z,197.55
2022-10-11T17:44:20.096Z,218.27
2022-10-11T17:46:47.502Z,200.48
2022-10-11T17:49:14.074Z,221.80
2022-10-11T17:51:41.578Z,223.93
2022-10-11T17:54:13.262Z,242.53
2022-10-11T17:56:41.634Z,228.98
2022-10-11T17:59:14.384Z,255.20
2022-10-11T18:01:41.148Z,230.60
2022-10-11T18:04:13.383Z,225.05
2022-10-11T18:06:40.097Z,244.98
2022-10-11T18:09:07.144Z,255.55
2022-10-11T18:11:34.064Z,247.05
2022-10-11T18:14:00.841Z,270.47
2022-10-11T18:16:29.645Z,250.27
2022-10-11T18:18:57.448Z,265.20
2022-10-11T18:21:33.726Z,280.00
2022-10-11T18:24:03.114Z,267.65
2022-10-11T18:26:30.920Z,271.10
2022-10-11T18:28:58.655Z,256.30
2022-10-11T18:31:28.639Z,260.03
2022-10-11T18:33:55.695Z,269.90
2022-10-11T18:36:25.561Z,287.02
2022-10-11T18:38:54.917Z,261.83
2022-10-11T18:41:23.472Z,269.27
2022-10-11T18:43:52.130Z,278.90
2022-10-11T18:46:19.537Z,264.02
2022-10-11T18:48:48.596Z,275.27
2022-10-11T18:51:23.857Z,272.27
2022-10-11T18:53:51.503Z,270.23
2022-10-11T18:56:21.726Z,276.08
2022-10-11T18:58:50.254Z,267.67
2022-10-11T19:01:23.776Z,274.65
2022-10-11T19:03:53.126Z,282.90
2022-10-11T19:06:22.497Z,290.00
2022-10-11T19:08:52.841Z,278.98
2022-10-11T19:11:25.229Z,289.67
2022-10-11T19:13:57.185Z,269.73
2022-10-11T19:16:24.616Z,264.00
2022-10-11T19:18:52.299Z,269.08
2022-10-11T19:21:19.617Z,265.88
2022-10-11T19:23:47.809Z,267.35
2022-10-11T19:26:18.723Z,278.07
2022-10-11T19:28:47.053Z,266.93
2022-10-11T19:31:16.839Z,283.60
2022-10-11T19:33:45.237Z,289.23
2022-10-11T19:36:13.933Z,301.20
2022-10-11T19:38:45.473Z,272.80
2022-10-11T19:41:13.199Z,294.17
2022-10-11T19:43:39.824Z,287.65
2022-10-11T19:46:09.999Z,310.35
2022-10-11T19:48:42.708Z,295.05
2022-10-11T19:51:18.619Z,302.60
2022-10-11T19:53:46.065Z,301.60
2022-10-11T19:56:15.958Z,302.42
2022-10-11T19:58:43.020Z,294.40
2022-10-11T20:01:17.539Z,310.38
2022-10-11T20:03:47.050Z,307.77
2022-10-11T20:06:14.439Z,303.77
2022-10-11T20:08:40.990Z,308.00
2022-10-11T20:11:09.265Z,319.88
2022-10-11T20:13:37.268Z,293.90
2022-10-11T20:16:10.311Z,311.88
2022-10-11T20:18:37.858Z,320.10
2022-10-11T20:21:07.769Z,321.00
2022-10-11T20:23:35.627Z,317.27
2022-10-11T20:26:15.853Z,322.87
2022-10-11T20:28:43.797Z,315.65
2022-10-11T20:31:16.338Z,315.83
2022-10-11T20:33:42.972Z,312.30
2022-10-11T20:36:12.062Z,304.45
2022-10-11T20:38:41.058Z,320.67
2022-10-11T20:41:22.300Z,325.98
2022-10-11T20:43:54.281Z,312.40
2022-10-11T20:46:23.936Z,313.52
2022-10-11T20:48:55.513Z,321.58
2022-10-11T20:51:26.302Z,336.92
2022-10-11T20:53:53.488Z,337.27
2022-10-11T20:56:21.298Z,333.48
2022-10-11T20:58:52.132Z,341.77
2022-10-11T21:01:21.074Z,330.83
2022-10-11T21:03:47.682Z,345.25
2022-10-11T21:06:14.429Z,353.35
2022-10-11T21:08:41.233Z,351.20
2022-10-11T21:11:08.643Z,357.45
2022-10-11T21:13:36.037Z,349.10
2022-10-11T21:16:04.625Z,358.10
2022-10-11T21:18:31.143Z,360.50
2022-10-11T21:20:57.760Z,352.92
2022-10-11T21:23:24.331Z,370.17
2022-10-11T21:25:51.078Z,377.38
2022-10-11T21:28:17.655Z,386.27
2022-10-11T21:30:44.137Z,373.10
2022-10-11T21:33:13.191Z,371.85
2022-10-11T21:35:40.393Z,326.92
2022-10-11T21:38:07.144Z,324.02
2022-10-11T21:40:37.805Z,330.33
2022-10-11T21:43:04.406Z,345.85
2022-10-11T21:45:30.947Z,346.42
2022-10-11T21:47:57.505Z,367.30
2022-10-11T21:50:24.065Z,379.35
2022-10-11T21:52:50.673Z,366.05
2022-10-11T21:55:17.239Z,382.45
2022-10-11T21:57:43.902Z,374.98
2022-10-11T22:00:11.206Z,351.98
2022-10-11T22:02:40.428Z,355.85
2022-10-11T22:05:07.105Z,344.90
2022-10-11T22:07:33.746Z,352.50
2022-10-11T22:10:00.374Z,351.20
2022-10-11T22:12:26.895Z,368.07
2022-10-11T22:14:53.461Z,362.65
2022-10-11T22:17:20.139Z,377.45
2022-10-11T22:19:46.678Z,373.55
2022-10-11T22:22:13.425Z,374.27
2022-10-11T22:24:40.014Z,372.33
2022-10-11T22:27:06.605Z,359.60
2022-10-11T22:29:34.317Z,351.77
2022-10-11T22:32:01.327Z,364.05
2022-10-11T22:34:31.702Z,375.50
2022-10-11T22:36:58.504Z,374.08
2022-10-11T22:39:25.178Z,367.08
2022-10-11T22:41:54.422Z,387.27
2022-10-11T22:44:21.300Z,374.80
2022-10-11T22:46:47.935Z,389.73
2022-10-11T22:49:14.459Z,397.52
2022-10-11T22:51:40.930Z,397.00
2022-10-11T22:54:07.492Z,406.48
2022-10-11T22:56:34.033Z,403.00
2022-10-11T22:59:00.581Z,397.70
2022-10-11T23:01:27.195Z,400.48
2022-10-11T23:03:53.930Z,406.95
2022-10-11T23:06:20.642Z,403.08
2022-10-11T23:08:47.359Z,384.35
2022-10-11T23:11:14.022Z,398.83
2022-10-11T23:13:40.613Z,394.60
2022-10-11T23:16:09.711Z,403.90
2022-10-11T23:18:36.842Z,401.25
2022-10-11T23:21:04.708Z,393.75
2022-10-11T23:23:31.277Z,392.38
2022-10-11T23:26:11.527Z,396.35
2022-10-11T23:28:38.224Z,395.23
2022-10-11T23:31:11.493Z,402.08
2022-10-11T23:33:38.509Z,402.23
2022-10-11T23:36:05.627Z,408.58
2022-10-11T23:38:32.505Z,419.88
2022-10-11T23:40:59.379Z,422.13
2022-10-11T23:43:25.925Z,414.77
2022-10-11T23:45:54.005Z,409.55
2022-10-11T23:48:20.555Z,403.20
2022-10-11T23:50:47.120Z,404.73
2022-10-11T23:53:13.782Z,407.33
2022-10-11T23:55:40.597Z,412.75
2022-10-11T23:58:07.179Z,407.40
